sensor_id;sensor_type;location;lat;lon;timestamp;P1;durP1;ratioP1;P2;durP2;ratioP2
77146;SDS011;66121;52.584;9.694;2023-12-29T00:00:25;5.47;;;1.65;;
77146;SDS011;66121;52.584;9.694;2023-12-29T00:02:51;7.53;;;2.20;;
77146;SDS011;66121;52.584;9.694;2023-12-29T00:05:16;7.55;;;1.88;;
77146;SDS011;66121;52.584;9.694;2023-12-29T00:07:41;3.78;;;1.55;;
77146;SDS011;66121;52.584;9.694;2023-12-29T00:10:07;3.90;;;1.80;;
77146;SDS011;66121;52.584;9.694;2023-12-29T00:12:33;5.70;;;1.90;;
77146;SDS011;66121;52.584;9.694;2023-12-29T00:14:59;6.90;;;1.98;;
77146;SDS011;66121;52.584;9.694;2023-12-29T00:17:24;6.38;;;1.70;;
77146;SDS011;66121;52.584;9.694;2023-12-29T00:19:50;9.95;;;2.15;;
77146;SDS011;66121;52.584;9.694;2023-12-29T00:22:15;10.00;;;2.03;;
77146;SDS011;66121;52.584;9.694;2023-12-29T00:24:41;4.35;;;1.95;;
77146;SDS011;66121;52.584;9.694;2023-12-29T00:27:06;5.40;;;1.70;;
77146;SDS011;66121;52.584;9.694;2023-12-29T00:29:31;5.88;;;1.85;;
77146;SDS011;66121;52.584;9.694;2023-12-29T00:32:00;6.63;;;2.38;;
77146;SDS011;66121;52.584;9.694;2023-12-29T00:34:25;5.18;;;1.58;;
77146;SDS011;66121;52.584;9.694;2023-12-29T00:36:51;10.13;;;2.20;;
77146;SDS011;66121;52.584;9.694;2023-12-29T00:39:16;3.72;;;1.70;;
77146;SDS011;66121;52.584;9.694;2023-12-29T00:41:41;6.82;;;3.08;;
77146;SDS011;66121;52.584;9.694;2023-12-29T00:44:07;4.78;;;1.77;;
77146;SDS011;66121;52.584;9.694;2023-12-29T00:46:33;5.82;;;1.20;;
77146;SDS011;66121;52.584;9.694;2023-12-29T00:48:58;3.90;;;1.88;;
77146;SDS011;66121;52.584;9.694;2023-12-29T00:51:24;4.63;;;1.83;;
77146;SDS011;66121;52.584;9.694;2023-12-29T00:53:49;4.43;;;1.60;;
77146;SDS011;66121;52.584;9.694;2023-12-29T00:56:14;4.33;;;1.50;;
77146;SDS011;66121;52.584;9.694;2023-12-29T00:58:39;3.42;;;1.40;;
77146;SDS011;66121;52.584;9.694;2023-12-29T01:01:06;2.70;;;1.65;;
77146;SDS011;66121;52.584;9.694;2023-12-29T01:03:33;4.22;;;1.70;;
77146;SDS011;66121;52.584;9.694;2023-12-29T01:05:59;2.00;;;1.40;;
77146;SDS011;66121;52.584;9.694;2023-12-29T01:08:24;4.07;;;1.50;;
77146;SDS011;66121;52.584;9.694;2023-12-29T01:10:50;6.10;;;1.70;;
77146;SDS011;66121;52.584;9.694;2023-12-29T01:13:15;5.07;;;1.90;;
77146;SDS011;66121;52.584;9.694;2023-12-29T01:15:40;9.50;;;2.10;;
77146;SDS011;66121;52.584;9.694;2023-12-29T01:18:09;7.55;;;1.77;;
77146;SDS011;66121;52.584;9.694;2023-12-29T01:20:34;2.75;;;1.40;;
77146;SDS011;66121;52.584;9.694;2023-12-29T01:23:00;5.55;;;1.65;;
77146;SDS011;66121;52.584;9.694;2023-12-29T01:25:25;2.73;;;2.07;;
77146;SDS011;66121;52.584;9.694;2023-12-29T01:27:50;6.97;;;1.80;;
77146;SDS011;66121;52.584;9.694;2023-12-29T01:30:16;6.05;;;2.00;;
77146;SDS011;66121;52.584;9.694;2023-12-29T01:32:41;3.28;;;1.73;;
77146;SDS011;66121;52.584;9.694;2023-12-29T01:35:06;2.85;;;1.75;;
77146;SDS011;66121;52.584;9.694;2023-12-29T01:37:32;3.15;;;2.05;;
77146;SDS011;66121;52.584;9.694;2023-12-29T01:39:57;4.28;;;1.25;;
77146;SDS011;66121;52.584;9.694;2023-12-29T01:42:23;4.55;;;1.58;;
77146;SDS011;66121;52.584;9.694;2023-12-29T01:44:48;4.95;;;1.63;;
77146;SDS011;66121;52.584;9.694;2023-12-29T01:47:19;4.90;;;1.50;;
77146;SDS011;66121;52.584;9.694;2023-12-29T01:49:45;2.67;;;1.67;;
77146;SDS011;66121;52.584;9.694;2023-12-29T01:52:11;5.43;;;2.60;;
77146;SDS011;66121;52.584;9.694;2023-12-29T01:54:38;5.70;;;1.73;;
77146;SDS011;66121;52.584;9.694;2023-12-29T01:57:05;9.60;;;2.00;;
77146;SDS011;66121;52.584;9.694;2023-12-29T01:59:33;7.80;;;1.98;;
77146;SDS011;66121;52.584;9.694;2023-12-29T02:02:01;4.57;;;1.75;;
77146;SDS011;66121;52.584;9.694;2023-12-29T02:04:27;7.03;;;2.10;;
77146;SDS011;66121;52.584;9.694;2023-12-29T02:06:53;2.47;;;1.50;;
77146;SDS011;66121;52.584;9.694;2023-12-29T02:09:19;4.35;;;1.67;;
77146;SDS011;66121;52.584;9.694;2023-12-29T02:11:46;7.28;;;2.30;;
77146;SDS011;66121;52.584;9.694;2023-12-29T02:14:11;14.20;;;2.85;;
77146;SDS011;66121;52.584;9.694;2023-12-29T02:21:53;10.75;;;2.03;;
77146;SDS011;66121;52.584;9.694;2023-12-29T02:24:18;6.20;;;2.05;;
77146;SDS011;66121;52.584;9.694;2023-12-29T02:26:44;2.85;;;1.73;;
77146;SDS011;66121;52.584;9.694;2023-12-29T02:29:14;5.55;;;1.90;;
77146;SDS011;66121;52.584;9.694;2023-12-29T02:31:45;5.45;;;2.00;;
77146;SDS011;66121;52.584;9.694;2023-12-29T02:34:17;3.40;;;1.60;;
77146;SDS011;66121;52.584;9.694;2023-12-29T02:36:47;7.80;;;2.08;;
77146;SDS011;66121;52.584;9.694;2023-12-29T02:39:15;3.75;;;1.17;;
77146;SDS011;66121;52.584;9.694;2023-12-29T02:41:41;4.68;;;1.65;;
77146;SDS011;66121;52.584;9.694;2023-12-29T02:44:07;10.40;;;1.95;;
77146;SDS011;66121;52.584;9.694;2023-12-29T02:46:32;4.93;;;1.92;;
77146;SDS011;66121;52.584;9.694;2023-12-29T02:48:58;3.17;;;1.48;;
77146;SDS011;66121;52.584;9.694;2023-12-29T02:51:24;7.22;;;1.38;;
77146;SDS011;66121;52.584;9.694;2023-12-29T02:53:49;6.65;;;2.60;;
77146;SDS011;66121;52.584;9.694;2023-12-29T02:56:15;6.82;;;1.80;;
77146;SDS011;66121;52.584;9.694;2023-12-29T02:58:40;6.18;;;1.52;;
77146;SDS011;66121;52.584;9.694;2023-12-29T03:01:05;6.65;;;2.03;;
77146;SDS011;66121;52.584;9.694;2023-12-29T03:03:31;4.65;;;1.90;;
77146;SDS011;66121;52.584;9.694;2023-12-29T03:05:56;5.32;;;1.75;;
77146;SDS011;66121;52.584;9.694;2023-12-29T03:08:21;6.53;;;2.13;;
77146;SDS011;66121;52.584;9.694;2023-12-29T03:10:47;3.93;;;1.60;;
77146;SDS011;66121;52.584;9.694;2023-12-29T03:13:12;8.37;;;3.47;;
77146;SDS011;66121;52.584;9.694;2023-12-29T03:15:37;4.90;;;1.60;;
77146;SDS011;66121;52.584;9.694;2023-12-29T03:18:02;5.27;;;1.73;;
77146;SDS011;66121;52.584;9.694;2023-12-29T03:20:28;2.05;;;1.25;;
77146;SDS011;66121;52.584;9.694;2023-12-29T03:22:53;10.07;;;2.47;;
77146;SDS011;66121;52.584;9.694;2023-12-29T03:25:20;5.63;;;1.88;;
77146;SDS011;66121;52.584;9.694;2023-12-29T03:27:45;3.65;;;1.95;;
77146;SDS011;66121;52.584;9.694;2023-12-29T03:30:11;2.37;;;2.07;;
77146;SDS011;66121;52.584;9.694;2023-12-29T03:32:36;7.03;;;2.00;;
77146;SDS011;66121;52.584;9.694;2023-12-29T03:35:01;2.88;;;1.40;;
77146;SDS011;66121;52.584;9.694;2023-12-29T03:37:27;3.50;;;1.67;;
77146;SDS011;66121;52.584;9.694;2023-12-29T03:39:52;6.17;;;1.77;;
77146;SDS011;66121;52.584;9.694;2023-12-29T03:42:17;6.57;;;2.23;;
77146;SDS011;66121;52.584;9.694;2023-12-29T03:44:43;7.57;;;1.63;;
77146;SDS011;66121;52.584;9.694;2023-12-29T03:47:10;3.17;;;1.60;;
77146;SDS011;66121;52.584;9.694;2023-12-29T03:49:35;3.83;;;1.55;;
77146;SDS011;66121;52.584;9.694;2023-12-29T03:52:01;5.35;;;1.90;;
77146;SDS011;66121;52.584;9.694;2023-12-29T03:54:26;6.13;;;1.50;;
77146;SDS011;66121;52.584;9.694;2023-12-29T03:56:51;2.63;;;1.40;;
77146;SDS011;66121;52.584;9.694;2023-12-29T03:59:17;2.75;;;1.42;;
77146;SDS011;66121;52.584;9.694;2023-12-29T04:01:42;4.67;;;1.40;;
77146;SDS011;66121;52.584;9.694;2023-12-29T04:04:08;3.85;;;1.20;;
77146;SDS011;66121;52.584;9.694;2023-12-29T04:06:33;3.13;;;1.40;;
77146;SDS011;66121;52.584;9.694;2023-12-29T04:08:58;2.58;;;1.63;;
77146;SDS011;66121;52.584;9.694;2023-12-29T04:11:24;5.55;;;1.77;;
77146;SDS011;66121;52.584;9.694;2023-12-29T04:13:49;4.33;;;1.50;;
77146;SDS011;66121;52.584;9.694;2023-12-29T04:16:14;4.80;;;1.67;;
77146;SDS011;66121;52.584;9.694;2023-12-29T04:18:40;2.60;;;1.52;;
77146;SDS011;66121;52.584;9.694;2023-12-29T04:21:05;2.33;;;1.05;;
77146;SDS011;66121;52.584;9.694;2023-12-29T04:23:33;5.03;;;1.73;;
77146;SDS011;66121;52.584;9.694;2023-12-29T04:25:58;4.13;;;1.70;;
77146;SDS011;66121;52.584;9.694;2023-12-29T04:28:24;8.50;;;1.23;;
77146;SDS011;66121;52.584;9.694;2023-12-29T04:30:49;3.83;;;1.60;;
77146;SDS011;66121;52.584;9.694;2023-12-29T04:33:14;1.52;;;1.20;;
77146;SDS011;66121;52.584;9.694;2023-12-29T04:35:40;4.40;;;1.33;;
77146;SDS011;66121;52.584;9.694;2023-12-29T04:38:05;2.40;;;1.58;;
77146;SDS011;66121;52.584;9.694;2023-12-29T04:40:31;4.00;;;1.38;;
77146;SDS011;66121;52.584;9.694;2023-12-29T04:42:56;2.55;;;1.52;;
77146;SDS011;66121;52.584;9.694;2023-12-29T04:45:22;2.20;;;1.40;;
77146;SDS011;66121;52.584;9.694;2023-12-29T04:47:47;1.95;;;1.45;;
77146;SDS011;66121;52.584;9.694;2023-12-29T04:50:13;3.17;;;1.60;;
77146;SDS011;66121;52.584;9.694;2023-12-29T04:52:38;5.63;;;1.27;;
77146;SDS011;66121;52.584;9.694;2023-12-29T04:55:03;3.63;;;1.63;;
77146;SDS011;66121;52.584;9.694;2023-12-29T04:57:29;8.98;;;2.58;;
77146;SDS011;66121;52.584;9.694;2023-12-29T04:59:54;3.67;;;1.40;;
77146;SDS011;66121;52.584;9.694;2023-12-29T05:02:19;2.43;;;1.47;;
77146;SDS011;66121;52.584;9.694;2023-12-29T05:04:45;6.43;;;2.80;;
77146;SDS011;66121;52.584;9.694;2023-12-29T05:07:11;6.70;;;1.60;;
77146;SDS011;66121;52.584;9.694;2023-12-29T05:09:36;2.97;;;1.50;;
77146;SDS011;66121;52.584;9.694;2023-12-29T05:12:02;4.85;;;1.40;;
77146;SDS011;66121;52.584;9.694;2023-12-29T05:14:27;6.28;;;1.45;;
77146;SDS011;66121;52.584;9.694;2023-12-29T05:16:53;2.60;;;1.27;;
77146;SDS011;66121;52.584;9.694;2023-12-29T05:19:18;2.85;;;1.30;;
77146;SDS011;66121;52.584;9.694;2023-12-29T05:21:44;2.03;;;1.42;;
77146;SDS011;66121;52.584;9.694;2023-12-29T05:24:09;4.50;;;1.17;;
77146;SDS011;66121;52.584;9.694;2023-12-29T05:26:35;1.67;;;1.20;;
77146;SDS011;66121;52.584;9.694;2023-12-29T05:29:00;1.98;;;1.65;;
77146;SDS011;66121;52.584;9.694;2023-12-29T05:31:25;6.82;;;1.90;;
77146;SDS011;66121;52.584;9.694;2023-12-29T05:33:51;4.10;;;1.50;;
77146;SDS011;66121;52.584;9.694;2023-12-29T05:36:16;7.38;;;3.53;;
77146;SDS011;66121;52.584;9.694;2023-12-29T05:38:45;3.35;;;1.70;;
77146;SDS011;66121;52.584;9.694;2023-12-29T05:41:15;5.75;;;1.77;;
77146;SDS011;66121;52.584;9.694;2023-12-29T05:43:40;3.05;;;1.27;;
77146;SDS011;66121;52.584;9.694;2023-12-29T05:46:09;2.85;;;1.55;;
77146;SDS011;66121;52.584;9.694;2023-12-29T05:48:38;1.88;;;1.70;;
77146;SDS011;66121;52.584;9.694;2023-12-29T05:51:07;4.35;;;1.90;;
77146;SDS011;66121;52.584;9.694;2023-12-29T05:53:34;6.25;;;2.22;;
77146;SDS011;66121;52.584;9.694;2023-12-29T05:55:59;4.45;;;2.03;;
77146;SDS011;66121;52.584;9.694;2023-12-29T05:58:24;6.65;;;2.30;;
77146;SDS011;66121;52.584;9.694;2023-12-29T06:00:50;2.70;;;1.80;;
77146;SDS011;66121;52.584;9.694;2023-12-29T06:03:15;5.72;;;2.05;;
77146;SDS011;66121;52.584;9.694;2023-12-29T06:05:40;5.45;;;2.88;;
77146;SDS011;66121;52.584;9.694;2023-12-29T06:08:06;13.38;;;3.55;;
77146;SDS011;66121;52.584;9.694;2023-12-29T06:10:32;7.47;;;2.60;;
77146;SDS011;66121;52.584;9.694;2023-12-29T06:12:57;6.75;;;2.45;;
77146;SDS011;66121;52.584;9.694;2023-12-29T06:15:23;10.50;;;3.75;;
77146;SDS011;66121;52.584;9.694;2023-12-29T06:17:48;6.03;;;2.90;;
77146;SDS011;66121;52.584;9.694;2023-12-29T06:20:13;2.75;;;1.92;;
77146;SDS011;66121;52.584;9.694;2023-12-29T06:22:39;4.88;;;2.70;;
77146;SDS011;66121;52.584;9.694;2023-12-29T06:25:09;5.18;;;3.00;;
77146;SDS011;66121;52.584;9.694;2023-12-29T06:27:35;6.65;;;2.65;;
77146;SDS011;66121;52.584;9.694;2023-12-29T06:30:04;5.50;;;2.42;;
77146;SDS011;66121;52.584;9.694;2023-12-29T06:32:30;9.35;;;2.75;;
77146;SDS011;66121;52.584;9.694;2023-12-29T06:34:56;6.90;;;2.97;;
77146;SDS011;66121;52.584;9.694;2023-12-29T06:37:21;9.93;;;3.22;;
77146;SDS011;66121;52.584;9.694;2023-12-29T06:39:47;6.80;;;2.60;;
77146;SDS011;66121;52.584;9.694;2023-12-29T06:42:12;7.07;;;2.85;;
77146;SDS011;66121;52.584;9.694;2023-12-29T06:44:37;9.85;;;3.00;;
77146;SDS011;66121;52.584;9.694;2023-12-29T06:47:03;8.82;;;2.67;;
77146;SDS011;66121;52.584;9.694;2023-12-29T06:49:30;6.75;;;2.35;;
77146;SDS011;66121;52.584;9.694;2023-12-29T06:51:56;9.15;;;2.80;;
77146;SDS011;66121;52.584;9.694;2023-12-29T06:54:22;6.18;;;2.53;;
77146;SDS011;66121;52.584;9.694;2023-12-29T06:56:47;6.72;;;3.20;;
77146;SDS011;66121;52.584;9.694;2023-12-29T06:59:13;6.25;;;2.53;;
77146;SDS011;66121;52.584;9.694;2023-12-29T07:01:39;4.85;;;2.42;;
77146;SDS011;66121;52.584;9.694;2023-12-29T07:04:07;8.40;;;2.70;;
77146;SDS011;66121;52.584;9.694;2023-12-29T07:06:35;6.70;;;2.97;;
77146;SDS011;66121;52.584;9.694;2023-12-29T07:09:01;3.38;;;1.77;;
77146;SDS011;66121;52.584;9.694;2023-12-29T07:11:28;8.98;;;2.47;;
77146;SDS011;66121;52.584;9.694;2023-12-29T07:13:53;11.98;;;3.30;;
77146;SDS011;66121;52.584;9.694;2023-12-29T07:16:19;7.47;;;2.60;;
77146;SDS011;66121;52.584;9.694;2023-12-29T07:18:47;5.32;;;1.85;;
77146;SDS011;66121;52.584;9.694;2023-12-29T07:21:14;4.55;;;2.10;;
77146;SDS011;66121;52.584;9.694;2023-12-29T07:23:40;7.57;;;2.20;;
77146;SDS011;66121;52.584;9.694;2023-12-29T07:26:06;10.88;;;3.15;;
77146;SDS011;66121;52.584;9.694;2023-12-29T07:28:32;5.85;;;2.10;;
77146;SDS011;66121;52.584;9.694;2023-12-29T07:30:57;7.60;;;2.25;;
77146;SDS011;66121;52.584;9.694;2023-12-29T07:33:23;6.90;;;2.05;;
77146;SDS011;66121;52.584;9.694;2023-12-29T07:35:49;11.70;;;2.40;;
77146;SDS011;66121;52.584;9.694;2023-12-29T07:38:15;9.70;;;3.22;;
77146;SDS011;66121;52.584;9.694;2023-12-29T07:40:40;9.80;;;2.53;;
77146;SDS011;66121;52.584;9.694;2023-12-29T07:43:05;9.43;;;2.80;;
77146;SDS011;66121;52.584;9.694;2023-12-29T07:45:31;10.05;;;3.03;;
77146;SDS011;66121;52.584;9.694;2023-12-29T07:47:56;9.80;;;3.72;;
77146;SDS011;66121;52.584;9.694;2023-12-29T07:50:22;6.57;;;2.95;;
77146;SDS011;66121;52.584;9.694;2023-12-29T07:52:47;9.05;;;3.15;;
77146;SDS011;66121;52.584;9.694;2023-12-29T07:55:13;7.00;;;3.05;;
77146;SDS011;66121;52.584;9.694;2023-12-29T07:57:41;10.52;;;3.45;;
77146;SDS011;66121;52.584;9.694;2023-12-29T08:00:07;8.52;;;3.38;;
77146;SDS011;66121;52.584;9.694;2023-12-29T08:02:32;8.55;;;4.05;;
77146;SDS011;66121;52.584;9.694;2023-12-29T08:04:58;11.10;;;3.85;;
77146;SDS011;66121;52.584;9.694;2023-12-29T08:07:23;8.40;;;3.80;;
77146;SDS011;66121;52.584;9.694;2023-12-29T08:09:49;9.57;;;4.43;;
77146;SDS011;66121;52.584;9.694;2023-12-29T08:12:14;10.15;;;3.95;;
77146;SDS011;66121;52.584;9.694;2023-12-29T08:14:39;12.85;;;4.70;;
77146;SDS011;66121;52.584;9.694;2023-12-29T08:17:05;10.98;;;5.40;;
77146;SDS011;66121;52.584;9.694;2023-12-29T08:19:32;16.75;;;4.45;;
77146;SDS011;66121;52.584;9.694;2023-12-29T08:21:57;9.32;;;4.13;;
77146;SDS011;66121;52.584;9.694;2023-12-29T08:24:22;7.70;;;3.40;;
77146;SDS011;66121;52.584;9.694;2023-12-29T08:26:48;7.70;;;3.25;;
77146;SDS011;66121;52.584;9.694;2023-12-29T08:29:13;14.05;;;3.42;;
77146;SDS011;66121;52.584;9.694;2023-12-29T08:31:39;12.70;;;3.78;;
77146;SDS011;66121;52.584;9.694;2023-12-29T08:34:05;7.63;;;3.90;;
77146;SDS011;66121;52.584;9.694;2023-12-29T08:36:30;9.68;;;3.58;;
77146;SDS011;66121;52.584;9.694;2023-12-29T08:38:55;7.03;;;3.22;;
77146;SDS011;66121;52.584;9.694;2023-12-29T08:41:21;6.75;;;2.65;;
77146;SDS011;66121;52.584;9.694;2023-12-29T08:43:47;9.98;;;4.00;;
77146;SDS011;66121;52.584;9.694;2023-12-29T08:46:12;9.45;;;3.53;;
77146;SDS011;66121;52.584;9.694;2023-12-29T08:48:38;10.25;;;4.20;;
77146;SDS011;66121;52.584;9.694;2023-12-29T08:51:03;9.52;;;3.30;;
77146;SDS011;66121;52.584;9.694;2023-12-29T08:53:29;6.40;;;3.10;;
77146;SDS011;66121;52.584;9.694;2023-12-29T08:55:58;12.65;;;2.92;;
77146;SDS011;66121;52.584;9.694;2023-12-29T08:58:24;5.03;;;2.58;;
77146;SDS011;66121;52.584;9.694;2023-12-29T09:00:49;5.45;;;2.75;;
77146;SDS011;66121;52.584;9.694;2023-12-29T09:03:14;7.97;;;2.53;;
77146;SDS011;66121;52.584;9.694;2023-12-29T09:05:40;17.07;;;4.47;;
77146;SDS011;66121;52.584;9.694;2023-12-29T09:08:05;5.90;;;3.23;;
77146;SDS011;66121;52.584;9.694;2023-12-29T09:10:30;12.30;;;2.65;;
77146;SDS011;66121;52.584;9.694;2023-12-29T09:12:56;7.18;;;2.08;;
77146;SDS011;66121;52.584;9.694;2023-12-29T09:15:21;6.23;;;2.20;;
77146;SDS011;66121;52.584;9.694;2023-12-29T09:17:46;11.43;;;2.53;;
77146;SDS011;66121;52.584;9.694;2023-12-29T09:20:12;9.47;;;3.17;;
77146;SDS011;66121;52.584;9.694;2023-12-29T09:22:39;9.57;;;2.88;;
77146;SDS011;66121;52.584;9.694;2023-12-29T09:25:05;14.50;;;2.65;;
77146;SDS011;66121;52.584;9.694;2023-12-29T09:27:30;8.25;;;2.30;;
77146;SDS011;66121;52.584;9.694;2023-12-29T09:29:56;10.73;;;2.67;;
77146;SDS011;66121;52.584;9.694;2023-12-29T09:32:21;6.33;;;3.87;;
77146;SDS011;66121;52.584;9.694;2023-12-29T09:34:46;3.77;;;1.87;;
77146;SDS011;66121;52.584;9.694;2023-12-29T09:37:11;6.60;;;2.60;;
77146;SDS011;66121;52.584;9.694;2023-12-29T09:39:37;6.45;;;1.90;;
77146;SDS011;66121;52.584;9.694;2023-12-29T09:42:03;4.77;;;2.13;;
77146;SDS011;66121;52.584;9.694;2023-12-29T09:44:28;10.20;;;2.25;;
77146;SDS011;66121;52.584;9.694;2023-12-29T09:46:57;11.60;;;2.63;;
77146;SDS011;66121;52.584;9.694;2023-12-29T09:49:26;8.98;;;2.20;;
77146;SDS011;66121;52.584;9.694;2023-12-29T09:51:56;5.47;;;2.13;;
77146;SDS011;66121;52.584;9.694;2023-12-29T09:54:22;9.40;;;2.50;;
77146;SDS011;66121;52.584;9.694;2023-12-29T09:56:49;9.73;;;2.30;;
77146;SDS011;66121;52.584;9.694;2023-12-29T09:59:15;5.80;;;2.13;;
77146;SDS011;66121;52.584;9.694;2023-12-29T10:01:42;5.38;;;1.90;;
77146;SDS011;66121;52.584;9.694;2023-12-29T10:04:11;4.65;;;1.70;;
77146;SDS011;66121;52.584;9.694;2023-12-29T10:06:36;4.90;;;1.67;;
77146;SDS011;66121;52.584;9.694;2023-12-29T10:09:06;4.55;;;1.88;;
77146;SDS011;66121;52.584;9.694;2023-12-29T10:11:35;5.22;;;1.55;;
77146;SDS011;66121;52.584;9.694;2023-12-29T10:14:03;3.17;;;1.52;;
77146;SDS011;66121;52.584;9.694;2023-12-29T10:16:50;3.05;;;1.20;;
77146;SDS011;66121;52.584;9.694;2023-12-29T10:22:21;6.82;;;2.50;;
77146;SDS011;66121;52.584;9.694;2023-12-29T10:24:54;4.25;;;1.90;;
77146;SDS011;66121;52.584;9.694;2023-12-29T10:27:20;5.88;;;1.27;;
77146;SDS011;66121;52.584;9.694;2023-12-29T10:29:45;5.32;;;1.58;;
77146;SDS011;66121;52.584;9.694;2023-12-29T10:32:11;3.33;;;1.63;;
77146;SDS011;66121;52.584;9.694;2023-12-29T10:34:36;2.67;;;1.20;;
77146;SDS011;66121;52.584;9.694;2023-12-29T10:37:02;2.58;;;1.00;;
77146;SDS011;66121;52.584;9.694;2023-12-29T10:39:28;2.55;;;1.73;;
77146;SDS011;66121;52.584;9.694;2023-12-29T10:42:06;3.42;;;1.45;;
77146;SDS011;66121;52.584;9.694;2023-12-29T10:44:36;5.50;;;1.55;;
77146;SDS011;66121;52.584;9.694;2023-12-29T10:47:09;9.00;;;1.85;;
77146;SDS011;66121;52.584;9.694;2023-12-29T10:49:35;4.72;;;1.67;;
77146;SDS011;66121;52.584;9.694;2023-12-29T10:52:03;5.22;;;1.45;;
77146;SDS011;66121;52.584;9.694;2023-12-29T10:54:37;4.30;;;1.40;;
77146;SDS011;66121;52.584;9.694;2023-12-29T10:57:02;3.38;;;1.40;;
77146;SDS011;66121;52.584;9.694;2023-12-29T10:59:28;6.57;;;2.00;;
77146;SDS011;66121;52.584;9.694;2023-12-29T11:01:53;2.28;;;1.98;;
77146;SDS011;66121;52.584;9.694;2023-12-29T11:04:21;3.25;;;1.65;;
77146;SDS011;66121;52.584;9.694;2023-12-29T11:06:47;3.35;;;1.52;;
77146;SDS011;66121;52.584;9.694;2023-12-29T11:09:26;4.35;;;1.77;;
77146;SDS011;66121;52.584;9.694;2023-12-29T11:11:59;6.43;;;1.70;;
77146;SDS011;66121;52.584;9.694;2023-12-29T11:14:29;4.57;;;1.70;;
77146;SDS011;66121;52.584;9.694;2023-12-29T11:16:55;2.75;;;1.60;;
77146;SDS011;66121;52.584;9.694;2023-12-29T11:19:21;3.50;;;1.92;;
77146;SDS011;66121;52.584;9.694;2023-12-29T11:21:47;3.67;;;1.50;;
77146;SDS011;66121;52.584;9.694;2023-12-29T11:24:17;2.97;;;1.80;;
77146;SDS011;66121;52.584;9.694;2023-12-29T11:26:42;3.30;;;2.03;;
77146;SDS011;66121;52.584;9.694;2023-12-29T11:29:09;7.95;;;2.30;;
77146;SDS011;66121;52.584;9.694;2023-12-29T11:31:36;4.97;;;2.13;;
77146;SDS011;66121;52.584;9.694;2023-12-29T11:34:13;3.10;;;2.13;;
77146;SDS011;66121;52.584;9.694;2023-12-29T11:36:46;3.80;;;1.80;;
77146;SDS011;66121;52.584;9.694;2023-12-29T11:39:24;3.28;;;1.88;;
77146;SDS011;66121;52.584;9.694;2023-12-29T11:42:14;8.50;;;2.88;;
77146;SDS011;66121;52.584;9.694;2023-12-29T11:44:44;5.40;;;2.65;;
77146;SDS011;66121;52.584;9.694;2023-12-29T11:50:02;4.85;;;2.38;;
77146;SDS011;66121;52.584;9.694;2023-12-29T11:52:38;6.28;;;2.10;;
77146;SDS011;66121;52.584;9.694;2023-12-29T11:55:14;5.10;;;1.92;;
77146;SDS011;66121;52.584;9.694;2023-12-29T11:57:39;2.63;;;1.95;;
77146;SDS011;66121;52.584;9.694;2023-12-29T12:00:06;4.43;;;2.70;;
77146;SDS011;66121;52.584;9.694;2023-12-29T12:02:32;7.68;;;2.40;;
77146;SDS011;66121;52.584;9.694;2023-12-29T12:04:58;3.42;;;2.55;;
77146;SDS011;66121;52.584;9.694;2023-12-29T12:12:47;4.65;;;3.45;;
77146;SDS011;66121;52.584;9.694;2023-12-29T12:17:54;7.00;;;4.38;;
77146;SDS011;66121;52.584;9.694;2023-12-29T12:20:24;9.35;;;4.60;;
77146;SDS011;66121;52.584;9.694;2023-12-29T12:22:56;8.18;;;3.80;;
77146;SDS011;66121;52.584;9.694;2023-12-29T12:25:26;7.55;;;3.60;;
77146;SDS011;66121;52.584;9.694;2023-12-29T12:27:53;4.43;;;2.72;;
77146;SDS011;66121;52.584;9.694;2023-12-29T12:30:18;8.68;;;3.20;;
77146;SDS011;66121;52.584;9.694;2023-12-29T12:32:44;5.10;;;3.38;;
77146;SDS011;66121;52.584;9.694;2023-12-29T12:35:13;8.90;;;3.10;;
77146;SDS011;66121;52.584;9.694;2023-12-29T12:37:42;4.82;;;3.15;;
77146;SDS011;66121;52.584;9.694;2023-12-29T12:40:07;4.00;;;1.95;;
77146;SDS011;66121;52.584;9.694;2023-12-29T12:42:34;6.20;;;2.70;;
77146;SDS011;66121;52.584;9.694;2023-12-29T12:45:16;5.70;;;2.95;;
77146;SDS011;66121;52.584;9.694;2023-12-29T12:47:45;4.03;;;1.88;;
77146;SDS011;66121;52.584;9.694;2023-12-29T12:50:15;4.25;;;2.42;;
77146;SDS011;66121;52.584;9.694;2023-12-29T12:52:41;4.57;;;1.60;;
77146;SDS011;66121;52.584;9.694;2023-12-29T12:55:06;5.60;;;1.88;;
77146;SDS011;66121;52.584;9.694;2023-12-29T12:57:33;2.75;;;2.15;;
77146;SDS011;66121;52.584;9.694;2023-12-29T12:59:59;4.95;;;2.17;;
77146;SDS011;66121;52.584;9.694;2023-12-29T13:02:26;3.05;;;1.98;;
77146;SDS011;66121;52.584;9.694;2023-12-29T13:04:53;4.15;;;2.22;;
77146;SDS011;66121;52.584;9.694;2023-12-29T13:07:19;4.05;;;2.10;;
77146;SDS011;66121;52.584;9.694;2023-12-29T13:09:51;3.85;;;1.85;;
77146;SDS011;66121;52.584;9.694;2023-12-29T13:12:17;3.17;;;1.60;;
77146;SDS011;66121;52.584;9.694;2023-12-29T13:14:43;1.50;;;1.30;;
77146;SDS011;66121;52.584;9.694;2023-12-29T13:17:11;5.22;;;1.90;;
77146;SDS011;66121;52.584;9.694;2023-12-29T13:19:38;5.40;;;1.80;;
77146;SDS011;66121;52.584;9.694;2023-12-29T13:22:07;1.55;;;1.40;;
77146;SDS011;66121;52.584;9.694;2023-12-29T13:24:34;1.77;;;1.42;;
77146;SDS011;66121;52.584;9.694;2023-12-29T13:27:05;3.85;;;1.73;;
77146;SDS011;66121;52.584;9.694;2023-12-29T13:29:32;1.80;;;1.48;;
77146;SDS011;66121;52.584;9.694;2023-12-29T13:32:02;3.58;;;1.90;;
77146;SDS011;66121;52.584;9.694;2023-12-29T13:34:37;3.53;;;1.65;;
77146;SDS011;66121;52.584;9.694;2023-12-29T13:37:24;3.13;;;1.73;;
77146;SDS011;66121;52.584;9.694;2023-12-29T13:40:00;2.97;;;1.40;;
77146;SDS011;66121;52.584;9.694;2023-12-29T13:42:34;3.55;;;1.80;;
77146;SDS011;66121;52.584;9.694;2023-12-29T13:45:02;2.92;;;1.73;;
77146;SDS011;66121;52.584;9.694;2023-12-29T13:47:30;3.63;;;2.00;;
77146;SDS011;66121;52.584;9.694;2023-12-29T13:49:56;2.38;;;1.65;;
77146;SDS011;66121;52.584;9.694;2023-12-29T13:52:22;2.33;;;1.60;;
77146;SDS011;66121;52.584;9.694;2023-12-29T13:54:47;3.13;;;1.75;;
77146;SDS011;66121;52.584;9.694;2023-12-29T13:57:13;4.40;;;1.60;;
77146;SDS011;66121;52.584;9.694;2023-12-29T13:59:39;2.40;;;1.77;;
77146;SDS011;66121;52.584;9.694;2023-12-29T14:02:23;3.80;;;1.85;;
77146;SDS011;66121;52.584;9.694;2023-12-29T14:05:06;5.30;;;2.10;;
77146;SDS011;66121;52.584;9.694;2023-12-29T14:07:36;8.50;;;5.15;;
77146;SDS011;66121;52.584;9.694;2023-12-29T14:10:02;2.35;;;1.83;;
77146;SDS011;66121;52.584;9.694;2023-12-29T14:12:27;2.63;;;1.50;;
77146;SDS011;66121;52.584;9.694;2023-12-29T14:14:53;2.00;;;1.20;;
77146;SDS011;66121;52.584;9.694;2023-12-29T14:17:21;2.35;;;1.50;;
77146;SDS011;66121;52.584;9.694;2023-12-29T14:19:47;1.23;;;1.13;;
77146;SDS011;66121;52.584;9.694;2023-12-29T14:22:20;2.93;;;1.20;;
77146;SDS011;66121;52.584;9.694;2023-12-29T14:25:03;1.13;;;0.90;;
77146;SDS011;66121;52.584;9.694;2023-12-29T14:27:30;1.10;;;1.00;;
77146;SDS011;66121;52.584;9.694;2023-12-29T14:29:55;1.10;;;1.00;;
77146;SDS011;66121;52.584;9.694;2023-12-29T14:32:21;1.27;;;0.85;;
77146;SDS011;66121;52.584;9.694;2023-12-29T14:34:47;1.75;;;1.10;;
77146;SDS011;66121;52.584;9.694;2023-12-29T14:37:18;1.17;;;0.90;;
77146;SDS011;66121;52.584;9.694;2023-12-29T14:39:52;1.52;;;0.98;;
77146;SDS011;66121;52.584;9.694;2023-12-29T14:42:17;1.55;;;1.08;;
77146;SDS011;66121;52.584;9.694;2023-12-29T14:44:46;1.98;;;0.85;;
77146;SDS011;66121;52.584;9.694;2023-12-29T14:47:13;4.53;;;2.13;;
77146;SDS011;66121;52.584;9.694;2023-12-29T14:49:39;2.42;;;1.60;;
77146;SDS011;66121;52.584;9.694;2023-12-29T14:52:05;3.35;;;1.75;;
77146;SDS011;66121;52.584;9.694;2023-12-29T14:54:31;3.50;;;1.67;;
77146;SDS011;66121;52.584;9.694;2023-12-29T14:56:56;1.75;;;1.65;;
77146;SDS011;66121;52.584;9.694;2023-12-29T14:59:21;2.50;;;1.50;;
77146;SDS011;66121;52.584;9.694;2023-12-29T15:01:47;2.65;;;1.77;;